sensor_id;sensor_type;location;lat;lon;timestamp;P1;durP1;ratioP1;P2;durP2;ratioP2
14770;SDS011;7477;45.222;5.688;2023-04-09T00:03:17;1.58;;;1.42;;
14770;SDS011;7477;45.222;5.688;2023-04-09T00:06:36;1.85;;;1.40;;
14770;SDS011;7477;45.222;5.688;2023-04-09T00:09:56;1.88;;;1.35;;
14770;SDS011;7477;45.222;5.688;2023-04-09T00:13:15;2.35;;;1.30;;
14770;SDS011;7477;45.222;5.688;2023-04-09T00:16:35;3.42;;;1.42;;
14770;SDS011;7477;45.222;5.688;2023-04-09T00:19:54;2.03;;;1.48;;
14770;SDS011;7477;45.222;5.688;2023-04-09T00:23:13;1.70;;;1.40;;
14770;SDS011;7477;45.222;5.688;2023-04-09T00:26:32;2.25;;;1.40;;
14770;SDS011;7477;45.222;5.688;2023-04-09T00:29:55;1.95;;;1.30;;
14770;SDS011;7477;45.222;5.688;2023-04-09T00:33:14;2.35;;;1.20;;
14770;SDS011;7477;45.222;5.688;2023-04-09T00:36:33;1.23;;;0.98;;
14770;SDS011;7477;45.222;5.688;2023-04-09T00:39:52;3.45;;;1.80;;
14770;SDS011;7477;45.222;5.688;2023-04-09T00:43:11;1.35;;;1.25;;
14770;SDS011;7477;45.222;5.688;2023-04-09T00:46:30;1.63;;;1.20;;
14770;SDS011;7477;45.222;5.688;2023-04-09T00:49:50;1.50;;;1.40;;
14770;SDS011;7477;45.222;5.688;2023-04-09T00:53:09;1.38;;;1.27;;
14770;SDS011;7477;45.222;5.688;2023-04-09T00:56:29;1.83;;;1.10;;
14770;SDS011;7477;45.222;5.688;2023-04-09T00:59:49;1.40;;;1.30;;
14770;SDS011;7477;45.222;5.688;2023-04-09T01:03:08;1.60;;;1.50;;
14770;SDS011;7477;45.222;5.688;2023-04-09T01:10:18;1.98;;;1.10;;
14770;SDS011;7477;45.222;5.688;2023-04-09T01:17:58;1.17;;;1.08;;
14770;SDS011;7477;45.222;5.688;2023-04-09T01:21:23;1.58;;;1.48;;
14770;SDS011;7477;45.222;5.688;2023-04-09T01:25:08;1.35;;;1.20;;
14770;SDS011;7477;45.222;5.688;2023-04-09T01:28:44;1.80;;;1.20;;
14770;SDS011;7477;45.222;5.688;2023-04-09T01:32:06;1.55;;;1.40;;
14770;SDS011;7477;45.222;5.688;2023-04-09T01:35:27;1.58;;;1.23;;
14770;SDS011;7477;45.222;5.688;2023-04-09T01:38:47;1.73;;;1.25;;
14770;SDS011;7477;45.222;5.688;2023-04-09T01:42:08;0.90;;;0.90;;
14770;SDS011;7477;45.222;5.688;2023-04-09T01:45:30;2.15;;;1.27;;
14770;SDS011;7477;45.222;5.688;2023-04-09T01:48:49;1.83;;;1.30;;
14770;SDS011;7477;45.222;5.688;2023-04-09T01:52:09;1.38;;;1.27;;
14770;SDS011;7477;45.222;5.688;2023-04-09T01:55:29;1.98;;;1.38;;
14770;SDS011;7477;45.222;5.688;2023-04-09T01:58:48;1.92;;;1.60;;
14770;SDS011;7477;45.222;5.688;2023-04-09T02:02:09;2.80;;;1.60;;
14770;SDS011;7477;45.222;5.688;2023-04-09T02:05:36;1.83;;;1.48;;
14770;SDS011;7477;45.222;5.688;2023-04-09T02:08:59;1.98;;;1.63;;
14770;SDS011;7477;45.222;5.688;2023-04-09T02:12:20;3.25;;;2.35;;
14770;SDS011;7477;45.222;5.688;2023-04-09T02:15:39;3.97;;;2.30;;
14770;SDS011;7477;45.222;5.688;2023-04-09T02:18:59;1.83;;;1.70;;
14770;SDS011;7477;45.222;5.688;2023-04-09T02:22:19;3.88;;;1.55;;
14770;SDS011;7477;45.222;5.688;2023-04-09T02:25:38;1.42;;;1.33;;
14770;SDS011;7477;45.222;5.688;2023-04-09T02:28:57;2.30;;;1.77;;
14770;SDS011;7477;45.222;5.688;2023-04-09T02:32:16;1.48;;;1.27;;
14770;SDS011;7477;45.222;5.688;2023-04-09T02:35:35;3.15;;;1.70;;
14770;SDS011;7477;45.222;5.688;2023-04-09T02:38:55;3.25;;;1.80;;
14770;SDS011;7477;45.222;5.688;2023-04-09T02:42:14;1.65;;;1.55;;
14770;SDS011;7477;45.222;5.688;2023-04-09T02:45:33;2.75;;;1.70;;
14770;SDS011;7477;45.222;5.688;2023-04-09T02:48:52;1.58;;;1.48;;
14770;SDS011;7477;45.222;5.688;2023-04-09T02:52:11;2.75;;;1.83;;
14770;SDS011;7477;45.222;5.688;2023-04-09T02:55:30;2.13;;;1.52;;
14770;SDS011;7477;45.222;5.688;2023-04-09T02:58:49;2.60;;;2.00;;
14770;SDS011;7477;45.222;5.688;2023-04-09T03:02:11;2.70;;;1.67;;
14770;SDS011;7477;45.222;5.688;2023-04-09T03:05:31;2.08;;;1.60;;
14770;SDS011;7477;45.222;5.688;2023-04-09T03:08:50;2.03;;;1.80;;
14770;SDS011;7477;45.222;5.688;2023-04-09T03:12:09;2.08;;;1.52;;
14770;SDS011;7477;45.222;5.688;2023-04-09T03:15:28;2.42;;;1.83;;
14770;SDS011;7477;45.222;5.688;2023-04-09T03:18:48;2.08;;;1.60;;
14770;SDS011;7477;45.222;5.688;2023-04-09T03:22:07;1.75;;;1.65;;
14770;SDS011;7477;45.222;5.688;2023-04-09T03:25:28;2.90;;;1.83;;
14770;SDS011;7477;45.222;5.688;2023-04-09T03:28:47;1.95;;;1.65;;
14770;SDS011;7477;45.222;5.688;2023-04-09T03:32:07;2.38;;;1.60;;
14770;SDS011;7477;45.222;5.688;2023-04-09T03:35:26;2.15;;;1.60;;
14770;SDS011;7477;45.222;5.688;2023-04-09T03:38:45;2.85;;;2.00;;
14770;SDS011;7477;45.222;5.688;2023-04-09T03:42:04;2.30;;;2.10;;
14770;SDS011;7477;45.222;5.688;2023-04-09T03:45:24;3.22;;;2.17;;
14770;SDS011;7477;45.222;5.688;2023-04-09T03:48:43;3.08;;;2.38;;
14770;SDS011;7477;45.222;5.688;2023-04-09T03:52:03;2.42;;;2.05;;
14770;SDS011;7477;45.222;5.688;2023-04-09T03:55:23;2.53;;;1.75;;
14770;SDS011;7477;45.222;5.688;2023-04-09T03:58:43;2.03;;;1.80;;
14770;SDS011;7477;45.222;5.688;2023-04-09T04:02:02;3.10;;;1.90;;
14770;SDS011;7477;45.222;5.688;2023-04-09T04:05:21;3.45;;;2.00;;
14770;SDS011;7477;45.222;5.688;2023-04-09T04:08:42;3.50;;;2.28;;
14770;SDS011;7477;45.222;5.688;2023-04-09T04:12:02;2.78;;;2.45;;
14770;SDS011;7477;45.222;5.688;2023-04-09T04:15:22;1.88;;;1.77;;
14770;SDS011;7477;45.222;5.688;2023-04-09T04:18:41;1.55;;;1.45;;
14770;SDS011;7477;45.222;5.688;2023-04-09T04:22:00;4.10;;;1.95;;
14770;SDS011;7477;45.222;5.688;2023-04-09T04:25:19;1.92;;;1.73;;
14770;SDS011;7477;45.222;5.688;2023-04-09T04:28:38;2.40;;;1.70;;
14770;SDS011;7477;45.222;5.688;2023-04-09T04:31:58;2.13;;;1.80;;
14770;SDS011;7477;45.222;5.688;2023-04-09T04:35:17;2.17;;;1.85;;
14770;SDS011;7477;45.222;5.688;2023-04-09T04:38:39;1.85;;;1.75;;
14770;SDS011;7477;45.222;5.688;2023-04-09T04:42:01;2.75;;;2.00;;
14770;SDS011;7477;45.222;5.688;2023-04-09T04:45:20;3.08;;;2.33;;
14770;SDS011;7477;45.222;5.688;2023-04-09T04:48:39;2.10;;;1.90;;
14770;SDS011;7477;45.222;5.688;2023-04-09T04:51:58;2.13;;;1.80;;
14770;SDS011;7477;45.222;5.688;2023-04-09T04:55:18;1.95;;;1.75;;
14770;SDS011;7477;45.222;5.688;2023-04-09T04:58:37;2.90;;;1.85;;
14770;SDS011;7477;45.222;5.688;2023-04-09T05:01:56;2.40;;;1.90;;
14770;SDS011;7477;45.222;5.688;2023-04-09T05:05:15;1.98;;;1.85;;
14770;SDS011;7477;45.222;5.688;2023-04-09T05:08:34;3.25;;;2.45;;
14770;SDS011;7477;45.222;5.688;2023-04-09T05:11:53;3.85;;;2.80;;
14770;SDS011;7477;45.222;5.688;2023-04-09T05:15:12;4.03;;;2.40;;
14770;SDS011;7477;45.222;5.688;2023-04-09T05:18:32;3.58;;;2.65;;
14770;SDS011;7477;45.222;5.688;2023-04-09T05:21:51;4.20;;;3.20;;
14770;SDS011;7477;45.222;5.688;2023-04-09T05:25:10;3.60;;;2.72;;
14770;SDS011;7477;45.222;5.688;2023-04-09T05:28:29;4.25;;;3.00;;
14770;SDS011;7477;45.222;5.688;2023-04-09T05:31:48;3.90;;;2.50;;
14770;SDS011;7477;45.222;5.688;2023-04-09T05:35:08;4.50;;;2.40;;
14770;SDS011;7477;45.222;5.688;2023-04-09T05:38:27;3.72;;;3.13;;
14770;SDS011;7477;45.222;5.688;2023-04-09T05:41:46;3.63;;;2.67;;
14770;SDS011;7477;45.222;5.688;2023-04-09T05:45:05;5.35;;;2.83;;
14770;SDS011;7477;45.222;5.688;2023-04-09T05:48:25;3.50;;;2.70;;
14770;SDS011;7477;45.222;5.688;2023-04-09T05:51:45;3.35;;;2.83;;
14770;SDS011;7477;45.222;5.688;2023-04-09T05:55:04;3.70;;;2.40;;
14770;SDS011;7477;45.222;5.688;2023-04-09T05:58:24;4.05;;;2.58;;
14770;SDS011;7477;45.222;5.688;2023-04-09T06:01:45;3.53;;;3.20;;
14770;SDS011;7477;45.222;5.688;2023-04-09T06:05:04;9.80;;;3.10;;
14770;SDS011;7477;45.222;5.688;2023-04-09T06:08:23;2.53;;;2.28;;
14770;SDS011;7477;45.222;5.688;2023-04-09T06:11:43;3.65;;;2.95;;
14770;SDS011;7477;45.222;5.688;2023-04-09T06:15:03;3.47;;;2.80;;
14770;SDS011;7477;45.222;5.688;2023-04-09T06:18:23;3.83;;;2.55;;
14770;SDS011;7477;45.222;5.688;2023-04-09T06:21:42;3.13;;;2.83;;
14770;SDS011;7477;45.222;5.688;2023-04-09T06:25:01;6.82;;;3.17;;
14770;SDS011;7477;45.222;5.688;2023-04-09T06:28:21;3.22;;;2.63;;
14770;SDS011;7477;45.222;5.688;2023-04-09T06:31:40;5.13;;;2.67;;
14770;SDS011;7477;45.222;5.688;2023-04-09T06:34:59;4.15;;;3.20;;
14770;SDS011;7477;45.222;5.688;2023-04-09T06:38:19;5.95;;;3.22;;
14770;SDS011;7477;45.222;5.688;2023-04-09T06:41:38;3.80;;;2.85;;
14770;SDS011;7477;45.222;5.688;2023-04-09T06:44:58;3.65;;;3.08;;
14770;SDS011;7477;45.222;5.688;2023-04-09T06:48:17;3.45;;;2.85;;
14770;SDS011;7477;45.222;5.688;2023-04-09T06:51:37;3.10;;;2.60;;
14770;SDS011;7477;45.222;5.688;2023-04-09T06:54:56;2.78;;;2.40;;
14770;SDS011;7477;45.222;5.688;2023-04-09T06:58:15;2.83;;;2.30;;
14770;SDS011;7477;45.222;5.688;2023-04-09T07:01:35;4.00;;;3.03;;
14770;SDS011;7477;45.222;5.688;2023-04-09T07:04:55;3.40;;;2.30;;
14770;SDS011;7477;45.222;5.688;2023-04-09T07:08:14;3.10;;;2.40;;
14770;SDS011;7477;45.222;5.688;2023-04-09T07:11:33;3.78;;;2.95;;
14770;SDS011;7477;45.222;5.688;2023-04-09T07:14:52;4.00;;;3.35;;
14770;SDS011;7477;45.222;5.688;2023-04-09T07:18:18;3.65;;;3.13;;
14770;SDS011;7477;45.222;5.688;2023-04-09T07:21:38;4.97;;;3.55;;
14770;SDS011;7477;45.222;5.688;2023-04-09T07:24:58;4.78;;;2.67;;
14770;SDS011;7477;45.222;5.688;2023-04-09T07:28:17;3.63;;;3.10;;
14770;SDS011;7477;45.222;5.688;2023-04-09T07:31:36;3.78;;;3.30;;
14770;SDS011;7477;45.222;5.688;2023-04-09T07:34:55;5.82;;;3.20;;
14770;SDS011;7477;45.222;5.688;2023-04-09T07:38:15;3.92;;;3.15;;
14770;SDS011;7477;45.222;5.688;2023-04-09T07:41:34;5.50;;;3.42;;
14770;SDS011;7477;45.222;5.688;2023-04-09T07:44:54;6.07;;;3.13;;
14770;SDS011;7477;45.222;5.688;2023-04-09T07:48:17;3.00;;;2.67;;
14770;SDS011;7477;45.222;5.688;2023-04-09T07:51:36;4.47;;;3.80;;
14770;SDS011;7477;45.222;5.688;2023-04-09T07:54:55;4.00;;;3.28;;
14770;SDS011;7477;45.222;5.688;2023-04-09T07:58:14;5.05;;;3.20;;
14770;SDS011;7477;45.222;5.688;2023-04-09T08:01:34;4.95;;;3.65;;
14770;SDS011;7477;45.222;5.688;2023-04-09T08:04:53;3.70;;;2.97;;
14770;SDS011;7477;45.222;5.688;2023-04-09T08:08:12;4.35;;;3.80;;
14770;SDS011;7477;45.222;5.688;2023-04-09T08:11:31;4.97;;;3.55;;
14770;SDS011;7477;45.222;5.688;2023-04-09T08:14:50;2.67;;;2.45;;
14770;SDS011;7477;45.222;5.688;2023-04-09T08:18:10;5.18;;;3.20;;
14770;SDS011;7477;45.222;5.688;2023-04-09T08:21:29;4.70;;;3.97;;
14770;SDS011;7477;45.222;5.688;2023-04-09T08:24:50;6.55;;;4.38;;
14770;SDS011;7477;45.222;5.688;2023-04-09T08:28:10;4.72;;;3.45;;
14770;SDS011;7477;45.222;5.688;2023-04-09T08:31:30;5.40;;;4.05;;
14770;SDS011;7477;45.222;5.688;2023-04-09T08:34:49;4.95;;;4.30;;
14770;SDS011;7477;45.222;5.688;2023-04-09T08:38:09;4.13;;;3.70;;
14770;SDS011;7477;45.222;5.688;2023-04-09T08:41:28;4.15;;;3.40;;
14770;SDS011;7477;45.222;5.688;2023-04-09T08:44:48;5.50;;;3.70;;
14770;SDS011;7477;45.222;5.688;2023-04-09T08:48:08;4.20;;;3.47;;
14770;SDS011;7477;45.222;5.688;2023-04-09T08:51:30;5.72;;;3.63;;
14770;SDS011;7477;45.222;5.688;2023-04-09T08:54:49;20.70;;;7.22;;
14770;SDS011;7477;45.222;5.688;2023-04-09T08:58:09;20.27;;;5.50;;
14770;SDS011;7477;45.222;5.688;2023-04-09T09:01:29;5.20;;;4.25;;
14770;SDS011;7477;45.222;5.688;2023-04-09T09:04:50;4.75;;;3.63;;
14770;SDS011;7477;45.222;5.688;2023-04-09T09:08:12;4.97;;;4.10;;
14770;SDS011;7477;45.222;5.688;2023-04-09T09:15:00;5.63;;;3.50;;
14770;SDS011;7477;45.222;5.688;2023-04-09T09:18:36;5.20;;;4.25;;
14770;SDS011;7477;45.222;5.688;2023-04-09T09:21:57;5.70;;;4.20;;
14770;SDS011;7477;45.222;5.688;2023-04-09T09:25:18;6.13;;;3.72;;
14770;SDS011;7477;45.222;5.688;2023-04-09T09:28:41;4.75;;;3.10;;
14770;SDS011;7477;45.222;5.688;2023-04-09T09:32:00;3.88;;;3.08;;
14770;SDS011;7477;45.222;5.688;2023-04-09T09:35:20;3.58;;;3.22;;
14770;SDS011;7477;45.222;5.688;2023-04-09T09:38:53;3.95;;;2.92;;
14770;SDS011;7477;45.222;5.688;2023-04-09T09:42:13;3.70;;;3.33;;
14770;SDS011;7477;45.222;5.688;2023-04-09T09:45:32;3.70;;;2.88;;
14770;SDS011;7477;45.222;5.688;2023-04-09T09:48:53;5.07;;;3.33;;
14770;SDS011;7477;45.222;5.688;2023-04-09T09:52:14;4.97;;;3.10;;
14770;SDS011;7477;45.222;5.688;2023-04-09T09:55:39;3.40;;;2.78;;
14770;SDS011;7477;45.222;5.688;2023-04-09T09:59:22;5.15;;;2.50;;
14770;SDS011;7477;45.222;5.688;2023-04-09T10:02:49;3.83;;;2.70;;
14770;SDS011;7477;45.222;5.688;2023-04-09T10:06:15;3.45;;;3.00;;
14770;SDS011;7477;45.222;5.688;2023-04-09T10:09:34;3.90;;;2.92;;
14770;SDS011;7477;45.222;5.688;2023-04-09T10:12:56;5.07;;;3.35;;
14770;SDS011;7477;45.222;5.688;2023-04-09T10:16:16;2.83;;;2.47;;
14770;SDS011;7477;45.222;5.688;2023-04-09T10:19:41;3.08;;;2.78;;
14770;SDS011;7477;45.222;5.688;2023-04-09T10:23:08;3.83;;;3.10;;
14770;SDS011;7477;45.222;5.688;2023-04-09T10:26:34;3.83;;;3.08;;
14770;SDS011;7477;45.222;5.688;2023-04-09T10:29:57;3.38;;;2.85;;
14770;SDS011;7477;45.222;5.688;2023-04-09T10:33:21;4.03;;;3.05;;
14770;SDS011;7477;45.222;5.688;2023-04-09T10:36:45;3.05;;;2.53;;
14770;SDS011;7477;45.222;5.688;2023-04-09T10:40:17;2.88;;;2.58;;
14770;SDS011;7477;45.222;5.688;2023-04-09T10:43:38;2.70;;;2.40;;
14770;SDS011;7477;45.222;5.688;2023-04-09T10:46:58;2.88;;;2.13;;
14770;SDS011;7477;45.222;5.688;2023-04-09T10:50:24;2.47;;;2.28;;
14770;SDS011;7477;45.222;5.688;2023-04-09T10:53:45;2.95;;;1.67;;
14770;SDS011;7477;45.222;5.688;2023-04-09T11:00:32;4.57;;;2.40;;
14770;SDS011;7477;45.222;5.688;2023-04-09T11:04:06;2.72;;;1.85;;
14770;SDS011;7477;45.222;5.688;2023-04-09T11:07:27;2.97;;;2.08;;
14770;SDS011;7477;45.222;5.688;2023-04-09T11:10:50;2.40;;;2.20;;
14770;SDS011;7477;45.222;5.688;2023-04-09T11:14:18;4.25;;;3.00;;
14770;SDS011;7477;45.222;5.688;2023-04-09T11:17:38;4.00;;;2.65;;
14770;SDS011;7477;45.222;5.688;2023-04-09T11:20:59;2.85;;;2.03;;
14770;SDS011;7477;45.222;5.688;2023-04-09T11:24:19;2.45;;;1.73;;
14770;SDS011;7477;45.222;5.688;2023-04-09T11:27:43;2.55;;;2.35;;
14770;SDS011;7477;45.222;5.688;2023-04-09T11:31:03;2.30;;;2.10;;
14770;SDS011;7477;45.222;5.688;2023-04-09T11:34:26;2.65;;;2.40;;
14770;SDS011;7477;45.222;5.688;2023-04-09T11:37:47;5.78;;;1.70;;
14770;SDS011;7477;45.222;5.688;2023-04-09T11:41:08;1.80;;;1.70;;
14770;SDS011;7477;45.222;5.688;2023-04-09T11:44:30;2.60;;;1.83;;
14770;SDS011;7477;45.222;5.688;2023-04-09T11:47:50;3.95;;;2.55;;
14770;SDS011;7477;45.222;5.688;2023-04-09T11:51:09;2.10;;;1.83;;
14770;SDS011;7477;45.222;5.688;2023-04-09T11:54:32;2.13;;;1.63;;
14770;SDS011;7477;45.222;5.688;2023-04-09T11:57:52;2.10;;;1.90;;
14770;SDS011;7477;45.222;5.688;2023-04-09T12:01:15;3.10;;;1.58;;
14770;SDS011;7477;45.222;5.688;2023-04-09T12:04:34;2.08;;;1.80;;
14770;SDS011;7477;45.222;5.688;2023-04-09T12:07:57;2.03;;;1.90;;
14770;SDS011;7477;45.222;5.688;2023-04-09T12:11:19;1.83;;;1.73;;
14770;SDS011;7477;45.222;5.688;2023-04-09T12:14:38;1.70;;;1.60;;
14770;SDS011;7477;45.222;5.688;2023-04-09T12:18:11;3.13;;;1.85;;
14770;SDS011;7477;45.222;5.688;2023-04-09T12:25:10;2.22;;;1.98;;
14770;SDS011;7477;45.222;5.688;2023-04-09T12:28:30;2.05;;;1.85;;
14770;SDS011;7477;45.222;5.688;2023-04-09T12:31:49;2.65;;;1.80;;
14770;SDS011;7477;45.222;5.688;2023-04-09T12:35:09;2.80;;;2.50;;
14770;SDS011;7477;45.222;5.688;2023-04-09T12:38:28;4.13;;;2.28;;
14770;SDS011;7477;45.222;5.688;2023-04-09T12:41:48;2.42;;;2.15;;
14770;SDS011;7477;45.222;5.688;2023-04-09T12:45:08;2.50;;;2.30;;
14770;SDS011;7477;45.222;5.688;2023-04-09T12:48:29;2.80;;;2.47;;
14770;SDS011;7477;45.222;5.688;2023-04-09T12:51:49;3.35;;;2.40;;
14770;SDS011;7477;45.222;5.688;2023-04-09T12:55:09;2.53;;;2.03;;
14770;SDS011;7477;45.222;5.688;2023-04-09T12:58:29;2.90;;;2.63;;
14770;SDS011;7477;45.222;5.688;2023-04-09T13:01:49;2.38;;;2.17;;
14770;SDS011;7477;45.222;5.688;2023-04-09T13:05:10;3.05;;;2.15;;
14770;SDS011;7477;45.222;5.688;2023-04-09T13:08:29;2.88;;;2.50;;
14770;SDS011;7477;45.222;5.688;2023-04-09T13:11:48;2.75;;;2.28;;
14770;SDS011;7477;45.222;5.688;2023-04-09T13:15:08;2.60;;;2.40;;
14770;SDS011;7477;45.222;5.688;2023-04-09T13:18:27;2.08;;;1.65;;
14770;SDS011;7477;45.222;5.688;2023-04-09T13:21:46;2.40;;;2.13;;
14770;SDS011;7477;45.222;5.688;2023-04-09T13:25:06;2.60;;;2.10;;
14770;SDS011;7477;45.222;5.688;2023-04-09T13:28:25;2.00;;;1.80;;
14770;SDS011;7477;45.222;5.688;2023-04-09T13:31:45;1.95;;;1.85;;
14770;SDS011;7477;45.222;5.688;2023-04-09T13:35:04;4.47;;;2.10;;
14770;SDS011;7477;45.222;5.688;2023-04-09T13:38:24;3.42;;;2.08;;
14770;SDS011;7477;45.222;5.688;2023-04-09T13:41:44;1.88;;;1.70;;
14770;SDS011;7477;45.222;5.688;2023-04-09T13:45:03;2.15;;;2.00;;
14770;SDS011;7477;45.222;5.688;2023-04-09T13:48:23;3.30;;;1.85;;
14770;SDS011;7477;45.222;5.688;2023-04-09T13:51:43;3.35;;;1.90;;
14770;SDS011;7477;45.222;5.688;2023-04-09T13:55:03;2.47;;;1.77;;
14770;SDS011;7477;45.222;5.688;2023-04-09T13:58:23;1.77;;;1.67;;
14770;SDS011;7477;45.222;5.688;2023-04-09T14:01:43;2.63;;;2.13;;
14770;SDS011;7477;45.222;5.688;2023-04-09T14:05:02;2.00;;;1.90;;
14770;SDS011;7477;45.222;5.688;2023-04-09T14:08:21;2.33;;;2.13;;
14770;SDS011;7477;45.222;5.688;2023-04-09T14:11:40;2.10;;;2.00;;
14770;SDS011;7477;45.222;5.688;2023-04-09T14:14:59;2.20;;;1.80;;
14770;SDS011;7477;45.222;5.688;2023-04-09T14:18:18;2.70;;;1.70;;
14770;SDS011;7477;45.222;5.688;2023-04-09T14:21:38;2.28;;;2.00;;
14770;SDS011;7477;45.222;5.688;2023-04-09T14:24:58;1.88;;;1.70;;
14770;SDS011;7477;45.222;5.688;2023-04-09T14:28:18;2.22;;;1.70;;
14770;SDS011;7477;45.222;5.688;2023-04-09T14:31:38;1.88;;;1.63;;
14770;SDS011;7477;45.222;5.688;2023-04-09T14:34:59;2.17;;;1.77;;
14770;SDS011;7477;45.222;5.688;2023-04-09T14:38:18;1.58;;;1.40;;
14770;SDS011;7477;45.222;5.688;2023-04-09T14:41:37;1.75;;;1.65;;
14770;SDS011;7477;45.222;5.688;2023-04-09T14:44:56;1.60;;;1.50;;
14770;SDS011;7477;45.222;5.688;2023-04-09T14:48:16;2.40;;;1.80;;
14770;SDS011;7477;45.222;5.688;2023-04-09T14:51:35;2.28;;;2.08;;
14770;SDS011;7477;45.222;5.688;2023-04-09T14:54:55;2.10;;;1.90;;
14770;SDS011;7477;45.222;5.688;2023-04-09T14:58:15;1.70;;;1.60;;
14770;SDS011;7477;45.222;5.688;2023-04-09T15:01:34;2.00;;;1.80;;
14770;SDS011;7477;45.222;5.688;2023-04-09T15:04:53;2.08;;;1.85;;
14770;SDS011;7477;45.222;5.688;2023-04-09T15:08:12;2.20;;;2.00;;
14770;SDS011;7477;45.222;5.688;2023-04-09T15:11:32;1.70;;;1.52;;
14770;SDS011;7477;45.222;5.688;2023-04-09T15:14:51;3.67;;;2.00;;
14770;SDS011;7477;45.222;5.688;2023-04-09T15:18:10;1.70;;;1.60;;
14770;SDS011;7477;45.222;5.688;2023-04-09T15:21:30;1.98;;;1.75;;
14770;SDS011;7477;45.222;5.688;2023-04-09T15:24:49;2.45;;;1.90;;
14770;SDS011;7477;45.222;5.688;2023-04-09T15:28:09;1.88;;;1.70;;
14770;SDS011;7477;45.222;5.688;2023-04-09T15:31:29;2.67;;;1.60;;
14770;SDS011;7477;45.222;5.688;2023-04-09T15:34:48;2.25;;;1.90;;
14770;SDS011;7477;45.222;5.688;2023-04-09T15:38:08;3.35;;;2.05;;
14770;SDS011;7477;45.222;5.688;2023-04-09T15:41:27;2.42;;;2.10;;
14770;SDS011;7477;45.222;5.688;2023-04-09T15:44:49;3.13;;;2.10;;
14770;SDS011;7477;45.222;5.688;2023-04-09T15:48:09;2.38;;;2.08;;
14770;SDS011;7477;45.222;5.688;2023-04-09T15:51:28;2.25;;;2.05;;
14770;SDS011;7477;45.222;5.688;2023-04-09T15:54:49;3.45;;;1.98;;
14770;SDS011;7477;45.222;5.688;2023-04-09T15:58:08;5.40;;;2.60;;
14770;SDS011;7477;45.222;5.688;2023-04-09T16:01:27;4.30;;;2.40;;
14770;SDS011;7477;45.222;5.688;2023-04-09T16:04:47;2.30;;;1.80;;
14770;SDS011;7477;45.222;5.688;2023-04-09T16:08:06;2.88;;;2.15;;
14770;SDS011;7477;45.222;5.688;2023-04-09T16:11:25;3.63;;;2.45;;
14770;SDS011;7477;45.222;5.688;2023-04-09T16:14:45;4.80;;;2.20;;
14770;SDS011;7477;45.222;5.688;2023-04-09T16:18:04;5.22;;;2.25;;
14770;SDS011;7477;45.222;5.688;2023-04-09T16:21:23;3.08;;;2.15;;
14770;SDS011;7477;45.222;5.688;2023-04-09T16:24:43;2.22;;;2.00;;
14770;SDS011;7477;45.222;5.688;2023-04-09T16:28:03;2.70;;;1.90;;
14770;SDS011;7477;45.222;5.688;2023-04-09T16:31:22;5.63;;;2.10;;
14770;SDS011;7477;45.222;5.688;2023-04-09T16:34:41;2.80;;;1.70;;
14770;SDS011;7477;45.222;5.688;2023-04-09T16:38:01;1.98;;;1.80;;
14770;SDS011;7477;45.222;5.688;2023-04-09T16:41:20;6.78;;;2.15;;
14770;SDS011;7477;45.222;5.688;2023-04-09T16:44:39;4.43;;;2.00;;
14770;SDS011;7477;45.222;5.688;2023-04-09T16:47:59;2.28;;;1.88;;
14770;SDS011;7477;45.222;5.688;2023-04-09T16:51:18;3.17;;;1.70;;
14770;SDS011;7477;45.222;5.688;2023-04-09T16:54:38;1.90;;;1.80;;
14770;SDS011;7477;45.222;5.688;2023-04-09T16:57:57;2.65;;;2.42;;
14770;SDS011;7477;45.222;5.688;2023-04-09T17:01:16;2.58;;;1.98;;
14770;SDS011;7477;45.222;5.688;2023-04-09T17:04:35;3.05;;;2.55;;
14770;SDS011;7477;45.222;5.688;2023-04-09T17:07:55;1.63;;;1.52;;
14770;SDS011;7477;45.222;5.688;2023-04-09T17:11:15;1.90;;;1.70;;
14770;SDS011;7477;45.222;5.688;2023-04-09T17:14:35;2.30;;;1.55;;
14770;SDS011;7477;45.222;5.688;2023-04-09T17:17:56;2.45;;;2.25;;
14770;SDS011;7477;45.222;5.688;2023-04-09T17:21:16;2.05;;;1.88;;
14770;SDS011;7477;45.222;5.688;2023-04-09T17:24:35;2.30;;;2.10;;
14770;SDS011;7477;45.222;5.688;2023-04-09T17:27:55;2.17;;;1.70;;
14770;SDS011;7477;45.222;5.688;2023-04-09T17:31:14;3.53;;;2.47;;
14770;SDS011;7477;45.222;5.688;2023-04-09T17:34:33;2.35;;;2.00;;
14770;SDS011;7477;45.222;5.688;2023-04-09T17:37:53;3.80;;;1.83;;
14770;SDS011;7477;45.222;5.688;2023-04-09T17:41:12;2.58;;;2.30;;
14770;SDS011;7477;45.222;5.688;2023-04-09T17:44:32;2.40;;;2.20;;
14770;SDS011;7477;45.222;5.688;2023-04-09T17:47:52;5.75;;;3.78;;
14770;SDS011;7477;45.222;5.688;2023-04-09T17:51:13;2.03;;;1.83;;
14770;SDS011;7477;45.222;5.688;2023-04-09T17:54:36;3.83;;;1.98;;
14770;SDS011;7477;45.222;5.688;2023-04-09T17:57:56;2.05;;;1.85;;
14770;SDS011;7477;45.222;5.688;2023-04-09T18:01:15;2.38;;;2.17;;
14770;SDS011;7477;45.222;5.688;2023-04-09T18:04:34;2.10;;;1.80;;
14770;SDS011;7477;45.222;5.688;2023-04-09T18:07:54;2.08;;;1.80;;
14770;SDS011;7477;45.222;5.688;2023-04-09T18:11:14;2.53;;;2.10;;
14770;SDS011;7477;45.222;5.688;2023-04-09T18:14:35;3.65;;;3.25;;
14770;SDS011;7477;45.222;5.688;2023-04-09T18:17:54;4.18;;;2.90;;
14770;SDS011;7477;45.222;5.688;2023-04-09T18:21:13;4.28;;;3.42;;
14770;SDS011;7477;45.222;5.688;2023-04-09T18:24:34;5.05;;;4.03;;
14770;SDS011;7477;45.222;5.688;2023-04-09T18:27:53;3.65;;;2.70;;
14770;SDS011;7477;45.222;5.688;2023-04-09T18:31:13;3.00;;;2.00;;
14770;SDS011;7477;45.222;5.688;2023-04-09T18:34:32;2.83;;;2.08;;
14770;SDS011;7477;45.222;5.688;2023-04-09T18:37:52;2.47;;;2.10;;
14770;SDS011;7477;45.222;5.688;2023-04-09T18:41:11;3.22;;;2.38;;
14770;SDS011;7477;45.222;5.688;2023-04-09T18:44:34;5.82;;;5.32;;
14770;SDS011;7477;45.222;5.688;2023-04-09T18:47:55;5.43;;;4.30;;
14770;SDS011;7477;45.222;5.688;2023-04-09T18:51:14;8.55;;;7.43;;
14770;SDS011;7477;45.222;5.688;2023-04-09T18:54:33;3.22;;;2.55;;
14770;SDS011;7477;45.222;5.688;2023-04-09T18:57:55;2.33;;;2.10;;
14770;SDS011;7477;45.222;5.688;2023-04-09T19:01:15;2.50;;;2.08;;
14770;SDS011;7477;45.222;5.688;2023-04-09T19:04:35;2.75;;;2.17;;
14770;SDS011;7477;45.222;5.688;2023-04-09T19:08:00;2.95;;;2.65;;
14770;SDS011;7477;45.222;5.688;2023-04-09T19:11:20;3.83;;;2.25;;
14770;SDS011;7477;45.222;5.688;2023-04-09T19:14:39;3.05;;;2.35;;
14770;SDS011;7477;45.222;5.688;2023-04-09T19:17:59;3.10;;;2.10;;
14770;SDS011;7477;45.222;5.688;2023-04-09T19:21:18;4.45;;;2.28;;
14770;SDS011;7477;45.222;5.688;2023-04-09T19:24:37;2.15;;;1.90;;
14770;SDS011;7477;45.222;5.688;2023-04-09T19:27:56;2.58;;;2.13;;
14770;SDS011;7477;45.222;5.688;2023-04-09T19:31:15;2.17;;;1.75;;
14770;SDS011;7477;45.222;5.688;2023-04-09T19:34:34;2.28;;;2.05;;
14770;SDS011;7477;45.222;5.688;2023-04-09T19:37:53;2.40;;;2.10;;
14770;SDS011;7477;45.222;5.688;2023-04-09T19:41:13;5.65;;;1.98;;
14770;SDS011;7477;45.222;5.688;2023-04-09T19:44:33;2.58;;;2.38;;
14770;SDS011;7477;45.222;5.688;2023-04-09T19:47:52;6.75;;;6.15;;
14770;SDS011;7477;45.222;5.688;2023-04-09T19:51:17;8.23;;;5.35;;
14770;SDS011;7477;45.222;5.688;2023-04-09T19:54:37;3.67;;;3.20;;
14770;SDS011;7477;45.222;5.688;2023-04-09T19:57:56;3.88;;;3.17;;
14770;SDS011;7477;45.222;5.688;2023-04-09T20:01:16;2.50;;;2.22;;
14770;SDS011;7477;45.222;5.688;2023-04-09T20:04:35;3.22;;;2.08;;
14770;SDS011;7477;45.222;5.688;2023-04-09T20:07:55;5.18;;;2.63;;
14770;SDS011;7477;45.222;5.688;2023-04-09T20:11:15;2.38;;;2.03;;
14770;SDS011;7477;45.222;5.688;2023-04-09T20:14:34;4.43;;;2.22;;
14770;SDS011;7477;45.222;5.688;2023-04-09T20:17:55;2.53;;;2.20;;
14770;SDS011;7477;45.222;5.688;2023-04-09T20:21:14;3.22;;;2.47;;
14770;SDS011;7477;45.222;5.688;2023-04-09T20:24:34;3.15;;;2.15;;
14770;SDS011;7477;45.222;5.688;2023-04-09T20:27:54;2.45;;;2.05;;
14770;SDS011;7477;45.222;5.688;2023-04-09T20:31:13;2.10;;;1.90;;
14770;SDS011;7477;45.222;5.688;2023-04-09T20:34:32;6.60;;;2.65;;
14770;SDS011;7477;45.222;5.688;2023-04-09T20:37:52;2.45;;;1.90;;
14770;SDS011;7477;45.222;5.688;2023-04-09T20:41:13;2.35;;;2.03;;
14770;SDS011;7477;45.222;5.688;2023-04-09T20:44:32;3.38;;;2.42;;